CYNL

SPECI CYNL 212006Z AUTO 26013G21KT 1 3/4SM BKN010 OVC014 M06/M08 A2925 RMK AO1 SLP950
SPECI
LOCATION
CYNL
DATE - TIME
212006Z
WIND
260 TRUE @ 13 KNOTS GUSTS 21 KNOTS
VISIBILITY
1 3/4SM
RUNWAY VISUAL RANGE
NOT REPORTED
WEATHER
CLOUDINESS
BKN010 OVC014
TEMP / DEWPOINT
-6 ºC / -8 ºC
ALTIMETER
29.25 in. Hg
RECENT WEATHER
NOT REPORTED
WIND SHEAR
NOT REPORTED
REMARKS
RMK AO1 SLP950
SEA LEVEL PRESSURE: hPa

CYNL

SPECI CYNL 212004Z AUTO 27009G21KT 2 1/2SM OVC010 M06/M08 A2925 RMK AO1 SLP949
SPECI
LOCATION
CYNL
DATE - TIME
212004Z
WIND
270 TRUE @ 9 KNOTS GUSTS 21 KNOTS
VISIBILITY
2 1/2SM
RUNWAY VISUAL RANGE
NOT REPORTED
WEATHER
CLOUDINESS
OVC010
TEMP / DEWPOINT
-6 ºC / -8 ºC
ALTIMETER
29.25 in. Hg
RECENT WEATHER
NOT REPORTED
WIND SHEAR
NOT REPORTED
REMARKS
RMK AO1 SLP949
SEA LEVEL PRESSURE: hPa

CYNL

METAR CYNL 212000Z AUTO 27012G21KT 6SM BKN010 OVC012 M06/M08 A2925 RMK AO1 SLP949
METAR
LOCATION
CYNL
DATE - TIME
212000Z
WIND
270 TRUE @ 12 KNOTS GUSTS 21 KNOTS
VISIBILITY
6SM
RUNWAY VISUAL RANGE
NOT REPORTED
WEATHER
CLOUDINESS
BKN010 OVC012
TEMP / DEWPOINT
-6 ºC / -8 ºC
ALTIMETER
29.25 in. Hg
RECENT WEATHER
NOT REPORTED
WIND SHEAR
NOT REPORTED
REMARKS
RMK AO1 SLP949
SEA LEVEL PRESSURE: hPa

Your time UTC time
 
 
Weather data provided by AXYS Technologies Inc., www.axystechnologies.com
 
Station History